Time;durP1;ratioP1;P1;durP2;ratioP2;P2;SDS_P1;SDS_P2;PMS_P1;PMS_P2;Temp;Humidity;BMP_temperature;BMP_pressure;BME280_temperature;BME280_humidity;BME280_pressure;Samples;Min_cycle;Max_cycle;Signal;HPM_P1;HPM_P2
2022/09/16 00:01:10;;;;;;;1.52;0.47;;;;;;;;;;5017139;28;20204;-60
2022/09/16 00:03:37;;;;;;;0.60;0.60;;;;;;;;;;5016788;28;20200;-61
2022/09/16 00:06:06;;;;;;;0.63;0.55;;;;;;;;;;5017743;28;20213;-61
2022/09/16 00:08:33;;;;;;;0.60;0.60;;;;;;;;;;5014156;28;20204;-62
2022/09/16 00:11:00;;;;;;;0.98;0.57;;;;;;;;;;5016175;28;20298;-61
2022/09/16 00:13:27;;;;;;;0.55;0.52;;;;;;;;;;5018057;28;20219;-61
2022/09/16 00:15:54;;;;;;;0.50;0.50;;;;;;;;;;5010133;28;20205;-61
2022/09/16 00:18:21;;;;;;;0.60;0.60;;;;;;;;;;5013298;28;20224;-61
2022/09/16 00:20:49;;;;;;;2.08;0.40;;;;;;;;;;5017461;28;20207;-61
2022/09/16 00:23:18;;;;;;;0.40;0.40;;;;;;;;;;5023087;28;20667;-61
2022/09/16 00:25:45;;;;;;;1.83;0.50;;;;;;;;;;5020122;28;20428;-60
2022/09/16 00:28:12;;;;;;;0.85;0.60;;;;;;;;;;5024294;28;20204;-62
2022/09/16 00:30:39;;;;;;;0.40;0.40;;;;;;;;;;5010797;28;20464;-60
2022/09/16 00:33:08;;;;;;;0.30;0.30;;;;;;;;;;5009586;28;20209;-61
2022/09/16 00:35:35;;;;;;;0.65;0.40;;;;;;;;;;5018106;28;20228;-62
2022/09/16 00:38:02;;;;;;;0.50;0.50;;;;;;;;;;5022169;28;20266;-60
2022/09/16 00:40:30;;;;;;;0.82;0.40;;;;;;;;;;5021574;28;20212;-62
2022/09/16 00:42:59;;;;;;;1.45;0.40;;;;;;;;;;5022705;28;20643;-61
2022/09/16 00:45:30;;;;;;;0.60;0.60;;;;;;;;;;5021087;28;20205;-60
2022/09/16 00:47:58;;;;;;;0.30;0.30;;;;;;;;;;5014225;28;20239;-61
2022/09/16 00:50:28;;;;;;;0.50;0.50;;;;;;;;;;5023558;28;20798;-61
2022/09/16 00:52:56;;;;;;;2.08;0.60;;;;;;;;;;5024611;28;20218;-60
2022/09/16 00:55:26;;;;;;;0.35;0.32;;;;;;;;;;5023382;28;20205;-60
2022/09/16 00:57:55;;;;;;;1.55;0.50;;;;;;;;;;5025383;28;20917;-60
2022/09/16 01:00:22;;;;;;;0.95;0.30;;;;;;;;;;5018249;28;20250;-60
2022/09/16 01:02:50;;;;;;;0.80;0.50;;;;;;;;;;5014528;28;20259;-60
2022/09/16 01:05:19;;;;;;;0.50;0.50;;;;;;;;;;5023970;28;20201;-61
2022/09/16 01:07:47;;;;;;;0.90;0.50;;;;;;;;;;5026089;28;20240;-60
2022/09/16 01:10:15;;;;;;;0.70;0.50;;;;;;;;;;5019930;28;20703;-61
2022/09/16 01:12:42;;;;;;;5.07;0.60;;;;;;;;;;5019617;28;20246;-60
2022/09/16 01:15:11;;;;;;;2.08;0.55;;;;;;;;;;5025657;28;20197;-61
2022/09/16 01:17:48;;;;;;;1.75;0.60;;;;;;;;;;5012417;28;20234;-60
2022/09/16 01:20:39;;;;;;;0.95;0.57;;;;;;;;;;5020278;28;20205;-60
2022/09/16 01:23:17;;;;;;;1.65;0.75;;;;;;;;;;5017114;28;20212;-60
2022/09/16 01:25:49;;;;;;;0.40;0.40;;;;;;;;;;5026671;28;20239;-60
2022/09/16 01:28:24;;;;;;;0.50;0.50;;;;;;;;;;5013312;28;20641;-60
2022/09/16 01:30:55;;;;;;;0.38;0.38;;;;;;;;;;5019782;28;20228;-60
2022/09/16 01:33:27;;;;;;;1.20;0.50;;;;;;;;;;5025301;28;20200;-60
2022/09/16 01:36:04;;;;;;;0.98;0.55;;;;;;;;;;5015555;28;20247;-60
2022/09/16 01:38:39;;;;;;;0.68;0.50;;;;;;;;;;5012056;28;20521;-60
2022/09/16 01:41:08;;;;;;;1.27;0.60;;;;;;;;;;5017011;28;20625;-61
2022/09/16 01:43:40;;;;;;;0.57;0.57;;;;;;;;;;5015855;28;20296;-60
2022/09/16 01:46:12;;;;;;;1.23;0.50;;;;;;;;;;5028160;28;20201;-60
2022/09/16 01:48:42;;;;;;;4.38;0.45;;;;;;;;;;5018066;28;20201;-60
2022/09/16 01:51:14;;;;;;;0.35;0.35;;;;;;;;;;5018110;28;20225;-61
2022/09/16 01:53:44;;;;;;;0.20;0.20;;;;;;;;;;5022428;28;20208;-61
2022/09/16 01:56:14;;;;;;;0.55;0.40;;;;;;;;;;5028494;28;20213;-60
2022/09/16 01:58:45;;;;;;;3.83;0.63;;;;;;;;;;5013497;28;20259;-60
2022/09/16 02:01:17;;;;;;;0.65;0.40;;;;;;;;;;5011750;28;20209;-60
2022/09/16 02:03:46;;;;;;;0.22;0.22;;;;;;;;;;5016755;28;20292;-60
2022/09/16 02:06:16;;;;;;;0.68;0.45;;;;;;;;;;5018137;28;20663;-60
2022/09/16 02:08:45;;;;;;;0.40;0.30;;;;;;;;;;5023089;28;20254;-61
2022/09/16 02:11:14;;;;;;;0.43;0.30;;;;;;;;;;5011384;28;20275;-60
2022/09/16 02:13:43;;;;;;;0.63;0.40;;;;;;;;;;5014870;28;20217;-60
2022/09/16 02:16:11;;;;;;;0.80;0.30;;;;;;;;;;5022666;28;20226;-60
2022/09/16 02:18:41;;;;;;;0.30;0.30;;;;;;;;;;5020229;28;20698;-60
2022/09/16 02:21:11;;;;;;;1.15;0.20;;;;;;;;;;5016851;28;20247;-60
2022/09/16 02:23:42;;;;;;;0.40;0.40;;;;;;;;;;5016221;28;20201;-60
2022/09/16 02:26:11;;;;;;;0.65;0.50;;;;;;;;;;5011346;28;20216;-61
2022/09/16 02:28:40;;;;;;;1.25;0.45;;;;;;;;;;5014068;28;20678;-61
2022/09/16 02:31:08;;;;;;;0.35;0.35;;;;;;;;;;5012014;28;20696;-61
2022/09/16 02:33:37;;;;;;;0.52;0.50;;;;;;;;;;5025289;28;20204;-60
2022/09/16 02:36:07;;;;;;;3.08;0.50;;;;;;;;;;5021376;28;20205;-61
2022/09/16 02:38:37;;;;;;;0.98;0.40;;;;;;;;;;5018882;28;20291;-61
2022/09/16 02:41:05;;;;;;;2.40;0.45;;;;;;;;;;5022322;28;20292;-60
2022/09/16 02:43:32;;;;;;;0.65;0.50;;;;;;;;;;5025706;28;20208;-60
2022/09/16 02:46:03;;;;;;;0.95;0.40;;;;;;;;;;5010733;28;20230;-60
2022/09/16 02:48:36;;;;;;;0.30;0.30;;;;;;;;;;5023716;28;20295;-60
2022/09/16 02:51:10;;;;;;;0.88;0.32;;;;;;;;;;5011937;28;20217;-60
2022/09/16 02:53:41;;;;;;;1.75;0.45;;;;;;;;;;5011756;28;20205;-60
2022/09/16 02:56:10;;;;;;;0.82;0.40;;;;;;;;;;5012122;28;20212;-61
2022/09/16 02:58:37;;;;;;;1.17;0.73;;;;;;;;;;5014482;28;20232;-60
2022/09/16 03:01:05;;;;;;;1.65;0.40;;;;;;;;;;5023137;28;20612;-60
2022/09/16 03:03:32;;;;;;;0.40;0.40;;;;;;;;;;5021582;28;20290;-60
2022/09/16 03:06:16;;;;;;;2.40;0.40;;;;;;;;;;5019712;28;20959;-61
2022/09/16 03:08:44;;;;;;;0.35;0.35;;;;;;;;;;5012274;28;20211;-61
2022/09/16 03:11:16;;;;;;;0.30;0.30;;;;;;;;;;5013594;28;20217;-60
2022/09/16 03:13:48;;;;;;;1.17;0.32;;;;;;;;;;5018857;28;20204;-60
2022/09/16 03:16:17;;;;;;;0.77;0.40;;;;;;;;;;5011409;28;20201;-60
2022/09/16 03:18:52;;;;;;;0.30;0.30;;;;;;;;;;5023721;28;20232;-61
2022/09/16 03:21:25;;;;;;;2.03;0.57;;;;;;;;;;5011138;28;20197;-60
2022/09/16 03:23:56;;;;;;;1.17;0.50;;;;;;;;;;5009147;28;20236;-61
2022/09/16 03:26:26;;;;;;;2.08;0.52;;;;;;;;;;5011768;28;20259;-60
2022/09/16 03:28:58;;;;;;;1.05;0.30;;;;;;;;;;5020228;28;20201;-60
2022/09/16 03:31:27;;;;;;;0.73;0.47;;;;;;;;;;5011918;28;20232;-60
2022/09/16 03:33:59;;;;;;;0.50;0.50;;;;;;;;;;5023986;28;20274;-60
2022/09/16 03:36:32;;;;;;;0.40;0.40;;;;;;;;;;5025952;28;20231;-60
2022/09/16 03:39:00;;;;;;;0.65;0.60;;;;;;;;;;5009632;28;20688;-61
2022/09/16 03:41:28;;;;;;;1.55;0.82;;;;;;;;;;5017475;28;20196;-61
2022/09/16 03:43:56;;;;;;;0.40;0.40;;;;;;;;;;5015030;28;20213;-61
2022/09/16 03:46:23;;;;;;;0.43;0.43;;;;;;;;;;5011551;28;20344;-61
2022/09/16 03:48:51;;;;;;;0.30;0.30;;;;;;;;;;5019516;28;20288;-60
2022/09/16 03:51:18;;;;;;;0.65;0.52;;;;;;;;;;5025192;28;20282;-61
2022/09/16 03:53:46;;;;;;;0.50;0.50;;;;;;;;;;5014053;28;20271;-61
2022/09/16 03:56:13;;;;;;;1.77;0.60;;;;;;;;;;5021713;28;20204;-61
2022/09/16 03:58:40;;;;;;;0.45;0.45;;;;;;;;;;5015287;28;20208;-61
2022/09/16 04:01:08;;;;;;;1.08;0.52;;;;;;;;;;5022333;28;20200;-60
2022/09/16 04:03:36;;;;;;;2.70;0.57;;;;;;;;;;5014398;28;20202;-61
2022/09/16 04:06:03;;;;;;;0.55;0.32;;;;;;;;;;5018792;28;20398;-61
2022/09/16 04:08:30;;;;;;;0.52;0.40;;;;;;;;;;5024908;28;20667;-61
2022/09/16 04:11:00;;;;;;;4.20;0.40;;;;;;;;;;5019323;28;20224;-60
2022/09/16 04:13:29;;;;;;;0.40;0.40;;;;;;;;;;5008384;28;20213;-61
2022/09/16 04:15:56;;;;;;;0.35;0.35;;;;;;;;;;5013904;28;20212;-61
2022/09/16 04:18:24;;;;;;;1.65;0.65;;;;;;;;;;5017627;28;20231;-61
2022/09/16 04:20:51;;;;;;;2.20;0.55;;;;;;;;;;5013272;28;20193;-62
2022/09/16 04:23:18;;;;;;;0.45;0.40;;;;;;;;;;5008569;28;20259;-61
2022/09/16 04:25:45;;;;;;;0.85;0.60;;;;;;;;;;5012459;28;20314;-61
2022/09/16 04:28:13;;;;;;;0.40;0.40;;;;;;;;;;5023507;28;20261;-61
2022/09/16 04:30:40;;;;;;;1.30;0.60;;;;;;;;;;5024612;28;20282;-62
2022/09/16 04:33:07;;;;;;;0.47;0.47;;;;;;;;;;5024697;28;20255;-61
2022/09/16 04:35:34;;;;;;;0.63;0.40;;;;;;;;;;5025290;28;20251;-61
2022/09/16 04:38:01;;;;;;;1.00;0.50;;;;;;;;;;5018188;28;20259;-61
2022/09/16 04:40:28;;;;;;;0.90;0.60;;;;;;;;;;5009547;28;20240;-61
2022/09/16 04:42:55;;;;;;;0.50;0.50;;;;;;;;;;5010396;28;20205;-61
2022/09/16 04:45:24;;;;;;;1.00;0.60;;;;;;;;;;5019583;28;20208;-61
2022/09/16 04:47:56;;;;;;;0.45;0.45;;;;;;;;;;5020691;28;20212;-61
2022/09/16 04:50:23;;;;;;;4.55;0.60;;;;;;;;;;5023893;28;20208;-61
2022/09/16 04:52:51;;;;;;;0.77;0.75;;;;;;;;;;5021382;28;20216;-61
2022/09/16 04:55:21;;;;;;;0.40;0.40;;;;;;;;;;5022538;28;20661;-61
2022/09/16 04:57:48;;;;;;;0.40;0.40;;;;;;;;;;5019212;28;20323;-61
2022/09/16 05:00:16;;;;;;;1.23;0.63;;;;;;;;;;5014687;28;20659;-60
2022/09/16 05:02:45;;;;;;;0.60;0.57;;;;;;;;;;5018320;28;20199;-61
2022/09/16 05:05:13;;;;;;;0.38;0.38;;;;;;;;;;5023028;28;20212;-61
2022/09/16 05:07:40;;;;;;;0.40;0.40;;;;;;;;;;5012704;28;20291;-61
2022/09/16 05:10:07;;;;;;;0.40;0.40;;;;;;;;;;5026572;28;20266;-61
2022/09/16 05:12:34;;;;;;;2.38;0.57;;;;;;;;;;5020416;28;20334;-61
2022/09/16 05:15:01;;;;;;;0.43;0.43;;;;;;;;;;5008025;28;20279;-61
2022/09/16 05:17:30;;;;;;;0.63;0.45;;;;;;;;;;5008893;28;20240;-61
2022/09/16 05:19:58;;;;;;;0.30;0.30;;;;;;;;;;5008594;28;20216;-61
2022/09/16 05:22:25;;;;;;;0.43;0.43;;;;;;;;;;5017793;28;20210;-61
2022/09/16 05:24:52;;;;;;;2.07;0.43;;;;;;;;;;5014325;28;20729;-61
2022/09/16 05:27:21;;;;;;;0.57;0.50;;;;;;;;;;5026076;28;20266;-61
2022/09/16 05:29:48;;;;;;;1.48;0.75;;;;;;;;;;5029218;28;20201;-61
2022/09/16 05:32:15;;;;;;;0.90;0.50;;;;;;;;;;5010689;28;20232;-61
2022/09/16 05:34:42;;;;;;;3.20;0.40;;;;;;;;;;5026703;28;20204;-61
2022/09/16 05:37:10;;;;;;;2.85;0.80;;;;;;;;;;5016629;28;20215;-62
2022/09/16 05:39:37;;;;;;;3.83;0.70;;;;;;;;;;5012457;28;20270;-61
2022/09/16 05:42:04;;;;;;;0.50;0.50;;;;;;;;;;5022817;28;20581;-60
2022/09/16 05:44:31;;;;;;;3.22;1.02;;;;;;;;;;5029628;28;20299;-60
2022/09/16 05:47:06;;;;;;;1.53;0.80;;;;;;;;;;5021785;28;20239;-61
2022/09/16 05:49:33;;;;;;;1.10;0.63;;;;;;;;;;5009987;28;20211;-62
2022/09/16 05:52:01;;;;;;;5.45;1.63;;;;;;;;;;5022082;28;20859;-60
2022/09/16 05:54:30;;;;;;;0.50;0.50;;;;;;;;;;5022108;28;20308;-61
2022/09/16 05:56:57;;;;;;;0.60;0.60;;;;;;;;;;5016485;28;20695;-61
2022/09/16 05:59:24;;;;;;;0.85;0.60;;;;;;;;;;5030854;28;20330;-60
2022/09/16 06:01:51;;;;;;;1.30;0.70;;;;;;;;;;5029895;28;20778;-60
2022/09/16 06:04:18;;;;;;;1.10;0.90;;;;;;;;;;5027688;28;20205;-60
2022/09/16 06:06:45;;;;;;;1.80;0.60;;;;;;;;;;5011984;28;20287;-61
2022/09/16 06:09:14;;;;;;;1.15;1.00;;;;;;;;;;5010643;28;20213;-59
2022/09/16 06:11:43;;;;;;;0.60;0.60;;;;;;;;;;5027670;28;20230;-58
2022/09/16 06:14:11;;;;;;;1.40;0.93;;;;;;;;;;5017487;28;20209;-58
2022/09/16 06:16:38;;;;;;;1.10;0.70;;;;;;;;;;5011768;28;20205;-60
2022/09/16 06:19:06;;;;;;;0.80;0.80;;;;;;;;;;5012499;28;20282;-63
2022/09/16 06:21:33;;;;;;;1.00;0.60;;;;;;;;;;5020960;28;20239;-62
2022/09/16 06:24:00;;;;;;;1.80;0.80;;;;;;;;;;5012688;28;20237;-58
2022/09/16 06:26:27;;;;;;;0.50;0.50;;;;;;;;;;5011584;28;20244;-58
2022/09/16 06:28:56;;;;;;;0.50;0.50;;;;;;;;;;5024867;28;20217;-58
2022/09/16 06:31:23;;;;;;;2.38;0.80;;;;;;;;;;5031045;28;20232;-58
2022/09/16 06:33:51;;;;;;;1.30;1.10;;;;;;;;;;5028180;28;20259;-58
2022/09/16 06:36:19;;;;;;;1.08;0.60;;;;;;;;;;5031260;28;20298;-61
2022/09/16 06:38:46;;;;;;;0.47;0.47;;;;;;;;;;5030225;28;20216;-58
2022/09/16 06:41:13;;;;;;;1.35;0.57;;;;;;;;;;5030778;28;20294;-58
2022/09/16 06:43:41;;;;;;;1.13;0.60;;;;;;;;;;5030804;28;20212;-58
2022/09/16 06:46:12;;;;;;;0.82;0.77;;;;;;;;;;5030721;28;20243;-58
2022/09/16 06:48:39;;;;;;;0.47;0.47;;;;;;;;;;5030507;28;20321;-58
2022/09/16 06:51:07;;;;;;;2.13;0.63;;;;;;;;;;5030345;28;20662;-60
2022/09/16 06:53:34;;;;;;;1.55;0.70;;;;;;;;;;5030492;28;20585;-58
2022/09/16 06:56:01;;;;;;;0.70;0.70;;;;;;;;;;5011932;28;20223;-58
2022/09/16 06:58:29;;;;;;;0.45;0.45;;;;;;;;;;5010770;28;20892;-59
2022/09/16 07:00:56;;;;;;;0.70;0.63;;;;;;;;;;5010703;28;20267;-59
2022/09/16 07:03:24;;;;;;;1.38;0.70;;;;;;;;;;5011372;28;20201;-63
2022/09/16 07:05:59;;;;;;;0.70;0.70;;;;;;;;;;5014473;28;20257;-62
2022/09/16 07:08:26;;;;;;;4.20;0.90;;;;;;;;;;5030123;28;20340;-63
2022/09/16 07:10:57;;;;;;;2.15;0.68;;;;;;;;;;5020307;28;20211;-66
2022/09/16 07:13:24;;;;;;;0.63;0.63;;;;;;;;;;5010684;28;20328;-62
2022/09/16 07:15:51;;;;;;;0.80;0.80;;;;;;;;;;5030244;28;20212;-63
2022/09/16 07:18:18;;;;;;;4.20;0.90;;;;;;;;;;5030062;28;20259;-63
2022/09/16 07:20:47;;;;;;;1.98;0.57;;;;;;;;;;5011773;28;20211;-60
2022/09/16 07:23:14;;;;;;;0.90;0.50;;;;;;;;;;5011588;28;20205;-60
2022/09/16 07:25:41;;;;;;;0.43;0.43;;;;;;;;;;5025093;28;20251;-60
2022/09/16 07:28:08;;;;;;;2.25;0.55;;;;;;;;;;5027753;28;20742;-59
2022/09/16 07:30:35;;;;;;;1.52;0.60;;;;;;;;;;5029890;28;20234;-59
2022/09/16 07:33:02;;;;;;;0.43;0.43;;;;;;;;;;5022147;28;20236;-60
2022/09/16 07:35:29;;;;;;;4.00;0.68;;;;;;;;;;5029952;28;20212;-61
2022/09/16 07:37:57;;;;;;;0.95;0.70;;;;;;;;;;5020267;28;20307;-59
2022/09/16 07:40:24;;;;;;;0.40;0.40;;;;;;;;;;5009349;28;20546;-60
2022/09/16 07:42:51;;;;;;;0.50;0.50;;;;;;;;;;5010481;28;20208;-61
2022/09/16 07:45:18;;;;;;;0.40;0.40;;;;;;;;;;5009501;28;20627;-60
2022/09/16 07:47:49;;;;;;;1.27;0.40;;;;;;;;;;5020920;28;20204;-60
2022/09/16 07:50:16;;;;;;;0.70;0.70;;;;;;;;;;5021779;28;20201;-59
2022/09/16 07:52:43;;;;;;;0.57;0.57;;;;;;;;;;5009152;28;20232;-60
2022/09/16 07:55:12;;;;;;;1.63;0.45;;;;;;;;;;5013396;28;20205;-60
2022/09/16 07:57:39;;;;;;;0.63;0.60;;;;;;;;;;5027898;28;20848;-60
2022/09/16 08:00:06;;;;;;;1.30;0.55;;;;;;;;;;5008382;28;20353;-60
2022/09/16 08:02:33;;;;;;;0.55;0.38;;;;;;;;;;5008723;28;20680;-60
2022/09/16 08:05:00;;;;;;;0.50;0.50;;;;;;;;;;5008810;28;20216;-60
2022/09/16 08:07:27;;;;;;;2.47;0.40;;;;;;;;;;5012281;28;20628;-60
2022/09/16 08:09:54;;;;;;;0.30;0.30;;;;;;;;;;5010499;28;20225;-60
2022/09/16 08:12:23;;;;;;;1.55;0.40;;;;;;;;;;5007621;28;20658;-60
2022/09/16 08:14:50;;;;;;;0.40;0.38;;;;;;;;;;5007609;28;20213;-60
2022/09/16 08:17:17;;;;;;;1.45;0.40;;;;;;;;;;5008245;28;20213;-60
2022/09/16 08:19:44;;;;;;;0.45;0.30;;;;;;;;;;5007772;28;20205;-60
2022/09/16 08:22:11;;;;;;;2.25;0.45;;;;;;;;;;5006373;28;20749;-61
2022/09/16 08:24:38;;;;;;;3.72;0.40;;;;;;;;;;5007828;28;20248;-61
2022/09/16 08:27:05;;;;;;;1.83;0.50;;;;;;;;;;5008309;28;20275;-60
2022/09/16 08:29:34;;;;;;;0.95;0.40;;;;;;;;;;5008132;28;20212;-60
2022/09/16 08:32:01;;;;;;;0.93;0.55;;;;;;;;;;5009250;28;20239;-61
2022/09/16 08:34:28;;;;;;;0.73;0.40;;;;;;;;;;5008564;28;20262;-61
2022/09/16 08:36:55;;;;;;;2.60;0.50;;;;;;;;;;5008573;28;20216;-61
2022/09/16 08:39:22;;;;;;;1.52;0.60;;;;;;;;;;5009942;28;20976;-61
2022/09/16 08:42:05;;;;;;;1.77;0.40;;;;;;;;;;5025105;28;20698;-60
2022/09/16 08:44:39;;;;;;;0.30;0.30;;;;;;;;;;5026665;28;20212;-60
2022/09/16 08:47:25;;;;;;;0.50;0.50;;;;;;;;;;5009374;28;20212;-60
2022/09/16 08:49:53;;;;;;;0.55;0.40;;;;;;;;;;5012982;28;20212;-60
2022/09/16 08:52:24;;;;;;;0.20;0.20;;;;;;;;;;5028676;28;20240;-60
2022/09/16 08:54:52;;;;;;;1.85;0.40;;;;;;;;;;5027022;28;20255;-59
2022/09/16 08:57:21;;;;;;;0.40;0.40;;;;;;;;;;5028520;28;20695;-60
2022/09/16 08:59:51;;;;;;;0.28;0.28;;;;;;;;;;5016369;28;20221;-60
2022/09/16 09:02:26;;;;;;;0.77;0.30;;;;;;;;;;5028610;28;20200;-60
2022/09/16 09:04:53;;;;;;;1.27;0.40;;;;;;;;;;5032634;28;20544;-61
2022/09/16 09:07:24;;;;;;;4.03;0.30;;;;;;;;;;5031940;28;20575;-62
2022/09/16 09:09:58;;;;;;;0.22;0.22;;;;;;;;;;5012677;28;20240;-61
2022/09/16 09:12:28;;;;;;;1.10;0.40;;;;;;;;;;5013016;28;20244;-61
2022/09/16 09:15:02;;;;;;;0.20;0.20;;;;;;;;;;5012435;28;20204;-61
2022/09/16 09:17:34;;;;;;;0.77;0.43;;;;;;;;;;5013571;28;20231;-61
2022/09/16 09:20:05;;;;;;;0.43;0.40;;;;;;;;;;5019670;28;20224;-61
2022/09/16 09:22:39;;;;;;;0.45;0.38;;;;;;;;;;5013588;28;20204;-61
2022/09/16 09:25:21;;;;;;;0.43;0.25;;;;;;;;;;5023285;28;20304;-61
2022/09/16 09:27:53;;;;;;;1.90;0.40;;;;;;;;;;5012697;28;20239;-62
2022/09/16 09:30:22;;;;;;;2.95;0.50;;;;;;;;;;5012400;28;20209;-61
2022/09/16 09:32:57;;;;;;;1.35;0.40;;;;;;;;;;5022648;28;20239;-66
2022/09/16 09:35:32;;;;;;;1.65;0.52;;;;;;;;;;5026849;28;20213;-61
2022/09/16 09:38:10;;;;;;;2.58;0.40;;;;;;;;;;5013494;28;20216;-61
2022/09/16 09:40:39;;;;;;;1.30;0.30;;;;;;;;;;5011989;28;20216;-60
2022/09/16 09:43:10;;;;;;;0.43;0.30;;;;;;;;;;5025987;28;20679;-60
2022/09/16 09:45:41;;;;;;;0.80;0.40;;;;;;;;;;5027705;28;20250;-60
2022/09/16 09:48:13;;;;;;;0.65;0.50;;;;;;;;;;5022724;28;20205;-61
2022/09/16 09:50:42;;;;;;;0.47;0.30;;;;;;;;;;5011953;28;20255;-61
2022/09/16 09:53:13;;;;;;;0.50;0.22;;;;;;;;;;5013032;28;20248;-64
2022/09/16 09:55:41;;;;;;;1.05;0.38;;;;;;;;;;5021620;28;20272;-61
2022/09/16 09:58:17;;;;;;;0.40;0.40;;;;;;;;;;5031735;28;20228;-61
2022/09/16 10:00:46;;;;;;;0.25;0.25;;;;;;;;;;5021551;28;20208;-62
2022/09/16 10:03:15;;;;;;;0.47;0.20;;;;;;;;;;5026378;28;20236;-61
2022/09/16 10:05:42;;;;;;;0.30;0.30;;;;;;;;;;5028689;28;20661;-61
2022/09/16 10:08:19;;;;;;;0.20;0.20;;;;;;;;;;5029440;28;20216;-61
2022/09/16 10:10:49;;;;;;;0.75;0.40;;;;;;;;;;5031123;28;20212;-61
2022/09/16 10:13:16;;;;;;;1.55;0.47;;;;;;;;;;5030335;28;20835;-61
2022/09/16 10:15:44;;;;;;;0.30;0.30;;;;;;;;;;5013604;28;20328;-61
2022/09/16 10:18:15;;;;;;;2.10;0.43;;;;;;;;;;5011109;28;20475;-61
2022/09/16 10:20:43;;;;;;;0.20;0.20;;;;;;;;;;5011151;28;20568;-61
2022/09/16 10:23:12;;;;;;;0.75;0.30;;;;;;;;;;5011414;28;20209;-61
2022/09/16 10:25:39;;;;;;;0.60;0.50;;;;;;;;;;5010970;28;20241;-61
2022/09/16 10:28:07;;;;;;;0.50;0.20;;;;;;;;;;5011110;28;20307;-61
2022/09/16 10:30:43;;;;;;;0.98;0.40;;;;;;;;;;5011323;28;20268;-61
2022/09/16 10:33:14;;;;;;;0.55;0.30;;;;;;;;;;5010899;28;20224;-61
2022/09/16 10:35:53;;;;;;;0.80;0.20;;;;;;;;;;5011236;28;20216;-61
2022/09/16 10:38:21;;;;;;;0.43;0.30;;;;;;;;;;5011284;28;20209;-61
2022/09/16 10:40:52;;;;;;;2.08;0.45;;;;;;;;;;5011217;28;20220;-61
2022/09/16 10:43:19;;;;;;;0.20;0.20;;;;;;;;;;5024021;28;20354;-60
2022/09/16 10:45:47;;;;;;;0.68;0.20;;;;;;;;;;5029091;28;20205;-58
2022/09/16 10:48:16;;;;;;;2.22;0.30;;;;;;;;;;5030825;28;20208;-59
2022/09/16 10:50:53;;;;;;;0.40;0.40;;;;;;;;;;5022229;28;20205;-60
2022/09/16 10:53:22;;;;;;;0.22;0.22;;;;;;;;;;5011038;28;20671;-59
2022/09/16 10:55:56;;;;;;;1.13;0.40;;;;;;;;;;5011217;28;20224;-61
2022/09/16 10:58:23;;;;;;;0.22;0.22;;;;;;;;;;5014982;28;20282;-58
2022/09/16 11:00:52;;;;;;;0.20;0.20;;;;;;;;;;5029147;28;20204;-60
2022/09/16 11:03:44;;;;;;;0.47;0.10;;;;;;;;;;5024228;28;20723;-60
2022/09/16 11:06:18;;;;;;;1.00;0.28;;;;;;;;;;5011001;28;20702;-58
2022/09/16 11:08:51;;;;;;;0.35;0.20;;;;;;;;;;5020523;28;20203;-61
2022/09/16 11:11:21;;;;;;;0.50;0.40;;;;;;;;;;5021628;28;20247;-60
2022/09/16 11:13:54;;;;;;;0.55;0.32;;;;;;;;;;5011623;28;20248;-60
2022/09/16 11:16:37;;;;;;;0.45;0.40;;;;;;;;;;5014593;28;20216;-61
2022/09/16 11:19:06;;;;;;;0.85;0.28;;;;;;;;;;5010967;28;20237;-61
2022/09/16 11:21:41;;;;;;;0.70;0.30;;;;;;;;;;5010136;28;20213;-61
2022/09/16 11:24:16;;;;;;;0.30;0.30;;;;;;;;;;5024672;28;20236;-62
2022/09/16 11:26:49;;;;;;;0.43;0.30;;;;;;;;;;5025686;28;20215;-61
2022/09/16 11:29:25;;;;;;;0.38;0.38;;;;;;;;;;5029868;28;20239;-62
2022/09/16 11:31:57;;;;;;;0.30;0.30;;;;;;;;;;5026700;28;20211;-62
2022/09/16 11:34:34;;;;;;;0.28;0.28;;;;;;;;;;5010317;28;20229;-65
2022/09/16 11:37:05;;;;;;;0.30;0.30;;;;;;;;;;5010059;28;20212;-62
2022/09/16 11:39:41;;;;;;;0.35;0.30;;;;;;;;;;5027629;28;20217;-62
2022/09/16 11:42:14;;;;;;;0.52;0.30;;;;;;;;;;5026883;28;20307;-67
2022/09/16 11:44:44;;;;;;;1.90;0.40;;;;;;;;;;5014657;28;20484;-61
2022/09/16 11:47:21;;;;;;;0.80;0.43;;;;;;;;;;5018354;28;20201;-60
2022/09/16 11:50:04;;;;;;;0.30;0.30;;;;;;;;;;5014040;28;20200;-62
2022/09/16 11:52:43;;;;;;;0.40;0.30;;;;;;;;;;5015282;28;20208;-60
2022/09/16 11:55:19;;;;;;;1.85;0.20;;;;;;;;;;5017478;28;20616;-60
2022/09/16 11:57:49;;;;;;;0.10;0.10;;;;;;;;;;5026055;28;20211;-61
2022/09/16 12:00:17;;;;;;;0.30;0.30;;;;;;;;;;5009156;28;20205;-61
2022/09/16 12:02:49;;;;;;;0.30;0.30;;;;;;;;;;5023489;28;20219;-61
2022/09/16 12:05:19;;;;;;;0.20;0.20;;;;;;;;;;5028591;28;20297;-63
2022/09/16 12:07:51;;;;;;;2.28;0.10;;;;;;;;;;5010514;28;20213;-61
2022/09/16 12:10:21;;;;;;;0.63;0.20;;;;;;;;;;5008723;28;20232;-60
2022/09/16 12:12:51;;;;;;;2.40;0.40;;;;;;;;;;5008466;28;20212;-61
2022/09/16 12:15:19;;;;;;;0.95;0.40;;;;;;;;;;5008684;28;20209;-61
2022/09/16 12:17:51;;;;;;;1.05;0.30;;;;;;;;;;5008448;28;20399;-61
2022/09/16 12:20:20;;;;;;;1.02;0.28;;;;;;;;;;5008537;28;20209;-60
2022/09/16 12:22:50;;;;;;;0.17;0.17;;;;;;;;;;5008322;28;20296;-59
2022/09/16 12:25:19;;;;;;;0.20;0.20;;;;;;;;;;5008861;28;20805;-62
2022/09/16 12:27:51;;;;;;;2.20;0.25;;;;;;;;;;5009612;28;20581;-61
2022/09/16 12:30:19;;;;;;;0.45;0.20;;;;;;;;;;5008377;28;20408;-61
2022/09/16 12:32:50;;;;;;;2.80;0.25;;;;;;;;;;5008924;28;20213;-61
2022/09/16 12:35:19;;;;;;;0.20;0.20;;;;;;;;;;5011857;28;20729;-61
2022/09/16 12:37:48;;;;;;;0.45;0.20;;;;;;;;;;5008399;28;20778;-59
2022/09/16 12:40:18;;;;;;;0.57;0.15;;;;;;;;;;5015109;28;20212;-61
2022/09/16 12:43:06;;;;;;;0.30;0.20;;;;;;;;;;5014292;28;20209;-59
2022/09/16 12:45:50;;;;;;;0.20;0.20;;;;;;;;;;5006559;28;20216;-59
2022/09/16 12:48:35;;;;;;;0.55;0.30;;;;;;;;;;5016476;28;20200;-59
2022/09/16 12:51:11;;;;;;;0.20;0.20;;;;;;;;;;5020181;28;20350;-58
2022/09/16 12:53:56;;;;;;;0.25;0.13;;;;;;;;;;5016170;28;20234;-60
2022/09/16 12:56:34;;;;;;;0.20;0.20;;;;;;;;;;5011668;28;20731;-59
2022/09/16 12:59:16;;;;;;;0.30;0.22;;;;;;;;;;5017534;28;20601;-59
2022/09/16 13:01:44;;;;;;;1.35;0.17;;;;;;;;;;5013924;28;20240;-60
2022/09/16 13:04:14;;;;;;;0.30;0.30;;;;;;;;;;5005525;28;20209;-59
2022/09/16 13:06:45;;;;;;;0.15;0.15;;;;;;;;;;5017153;28;20213;-60
2022/09/16 13:09:15;;;;;;;0.13;0.13;;;;;;;;;;5008853;28;20277;-60
2022/09/16 13:11:52;;;;;;;0.20;0.20;;;;;;;;;;5008845;28;20220;-60
2022/09/16 13:14:22;;;;;;;0.20;0.20;;;;;;;;;;5022098;28;20220;-60
2022/09/16 13:16:53;;;;;;;0.10;0.10;;;;;;;;;;5024287;28;20220;-60
2022/09/16 13:19:38;;;;;;;0.45;0.17;;;;;;;;;;5025949;28;20224;-61
2022/09/16 13:22:14;;;;;;;0.10;0.10;;;;;;;;;;5017225;28;20581;-60
2022/09/16 13:24:42;;;;;;;0.45;0.30;;;;;;;;;;5016160;28;20322;-61
2022/09/16 13:27:24;;;;;;;0.20;0.20;;;;;;;;;;5017202;28;20319;-60
2022/09/16 13:29:51;;;;;;;0.30;0.30;;;;;;;;;;5017383;28;20233;-62
2022/09/16 13:32:28;;;;;;;0.20;0.10;;;;;;;;;;5006634;28;20216;-61
2022/09/16 13:35:02;;;;;;;0.20;0.20;;;;;;;;;;5015286;28;20234;-62
2022/09/16 13:37:29;;;;;;;0.20;0.20;;;;;;;;;;5016801;28;20343;-62
2022/09/16 13:39:56;;;;;;;0.28;0.28;;;;;;;;;;5009009;28;20327;-62
2022/09/16 13:42:25;;;;;;;0.10;0.10;;;;;;;;;;5008834;28;20225;-62
2022/09/16 13:44:52;;;;;;;0.20;0.20;;;;;;;;;;5008975;28;20209;-61
2022/09/16 13:47:30;;;;;;;0.30;0.30;;;;;;;;;;5028381;28;20270;-61
2022/09/16 13:49:59;;;;;;;0.30;0.30;;;;;;;;;;5013263;28;20293;-61
2022/09/16 13:52:28;;;;;;;0.40;0.30;;;;;;;;;;5020914;28;20687;-60
2022/09/16 13:54:55;;;;;;;0.22;0.22;;;;;;;;;;5023839;28;20235;-58
2022/09/16 13:57:38;;;;;;;0.45;0.32;;;;;;;;;;5024954;28;20212;-58
2022/09/16 14:00:27;;;;;;;0.20;0.20;;;;;;;;;;5022000;28;20709;-60
2022/09/16 14:03:07;;;;;;;0.30;0.30;;;;;;;;;;5022320;28;20537;-60
2022/09/16 14:05:46;;;;;;;0.20;0.20;;;;;;;;;;5022657;28;20215;-60
2022/09/16 14:08:17;;;;;;;0.20;0.20;;;;;;;;;;5031301;28;20218;-60
2022/09/16 14:10:50;;;;;;;0.30;0.30;;;;;;;;;;5023479;28;20197;-60
2022/09/16 14:13:19;;;;;;;0.22;0.22;;;;;;;;;;5012853;28;20209;-60
2022/09/16 14:15:48;;;;;;;0.13;0.13;;;;;;;;;;5027182;28;20228;-60
2022/09/16 14:18:16;;;;;;;0.20;0.20;;;;;;;;;;5011504;28;20669;-59
2022/09/16 14:20:52;;;;;;;0.32;0.20;;;;;;;;;;5014689;28;20240;-60
2022/09/16 14:23:20;;;;;;;0.10;0.10;;;;;;;;;;5024946;28;20263;-60
2022/09/16 14:25:47;;;;;;;1.85;0.20;;;;;;;;;;5017062;28;20585;-60
2022/09/16 14:28:20;;;;;;;0.93;0.20;;;;;;;;;;5016391;28;20258;-59
2022/09/16 14:30:48;;;;;;;0.20;0.20;;;;;;;;;;5016008;28;20581;-59
2022/09/16 14:33:16;;;;;;;0.17;0.17;;;;;;;;;;5015510;28;20228;-60
2022/09/16 14:35:43;;;;;;;0.20;0.20;;;;;;;;;;5023316;28;20655;-59
2022/09/16 14:38:13;;;;;;;0.30;0.30;;;;;;;;;;5009020;28;20550;-60
2022/09/16 14:40:40;;;;;;;0.30;0.30;;;;;;;;;;5029817;28;20208;-60
2022/09/16 14:43:08;;;;;;;0.20;0.20;;;;;;;;;;5025193;28;20238;-60
2022/09/16 14:45:37;;;;;;;0.20;0.20;;;;;;;;;;5014270;28;20200;-60
2022/09/16 14:48:06;;;;;;;0.30;0.30;;;;;;;;;;5019265;28;20213;-60
2022/09/16 14:50:34;;;;;;;0.22;0.17;;;;;;;;;;5025510;28;20216;-60
2022/09/16 14:53:02;;;;;;;0.25;0.25;;;;;;;;;;5012207;28;20926;-60
2022/09/16 14:55:30;;;;;;;0.43;0.30;;;;;;;;;;5024765;28;20250;-60
2022/09/16 14:57:57;;;;;;;0.20;0.20;;;;;;;;;;5029526;28;20215;-59
2022/09/16 15:00:26;;;;;;;0.20;0.20;;;;;;;;;;5020883;28;20275;-60